sensor_id;sensor_type;location;lat;lon;timestamp;temperature;humidity
24412;DHT22;12544;46.760;15.942;2022-07-21T00:01:04;22.10;78.50
24412;DHT22;12544;46.760;15.942;2022-07-21T00:03:30;22.10;78.20
24412;DHT22;12544;46.760;15.942;2022-07-21T00:05:55;22.10;77.90
24412;DHT22;12544;46.760;15.942;2022-07-21T00:08:21;22.10;77.80
24412;DHT22;12544;46.760;15.942;2022-07-21T00:10:46;22.00;78.40
24412;DHT22;12544;46.760;15.942;2022-07-21T00:13:12;22.00;79.20
24412;DHT22;12544;46.760;15.942;2022-07-21T00:15:37;22.00;79.70
24412;DHT22;12544;46.760;15.942;2022-07-21T00:18:03;21.90;80.70
24412;DHT22;12544;46.760;15.942;2022-07-21T00:20:29;21.90;80.20
24412;DHT22;12544;46.760;15.942;2022-07-21T00:22:55;21.80;80.20
24412;DHT22;12544;46.760;15.942;2022-07-21T00:25:21;21.80;80.40
24412;DHT22;12544;46.760;15.942;2022-07-21T00:27:47;21.80;81.40
24412;DHT22;12544;46.760;15.942;2022-07-21T00:30:13;21.80;80.60
24412;DHT22;12544;46.760;15.942;2022-07-21T00:32:38;21.80;80.10
24412;DHT22;12544;46.760;15.942;2022-07-21T00:35:04;21.80;80.70
24412;DHT22;12544;46.760;15.942;2022-07-21T00:40:26;21.90;80.40
24412;DHT22;12544;46.760;15.942;2022-07-21T00:42:51;21.80;81.30
24412;DHT22;12544;46.760;15.942;2022-07-21T00:45:17;21.70;82.30
24412;DHT22;12544;46.760;15.942;2022-07-21T00:47:42;21.60;84.30
24412;DHT22;12544;46.760;15.942;2022-07-21T00:50:10;21.50;85.70
24412;DHT22;12544;46.760;15.942;2022-07-21T00:52:35;21.40;86.10
24412;DHT22;12544;46.760;15.942;2022-07-21T00:55:01;21.30;86.60
24412;DHT22;12544;46.760;15.942;2022-07-21T00:57:27;21.30;86.90
24412;DHT22;12544;46.760;15.942;2022-07-21T00:59:53;21.10;87.10
24412;DHT22;12544;46.760;15.942;2022-07-21T01:02:18;20.90;87.30
24412;DHT22;12544;46.760;15.942;2022-07-21T01:04:44;20.60;87.80
24412;DHT22;12544;46.760;15.942;2022-07-21T01:07:09;20.60;88.30
24412;DHT22;12544;46.760;15.942;2022-07-21T01:09:35;20.50;88.20
24412;DHT22;12544;46.760;15.942;2022-07-21T01:12:01;20.50;88.20
24412;DHT22;12544;46.760;15.942;2022-07-21T01:14:26;20.50;89.40
24412;DHT22;12544;46.760;15.942;2022-07-21T01:16:52;20.40;90.30
24412;DHT22;12544;46.760;15.942;2022-07-21T01:19:18;20.40;90.60
24412;DHT22;12544;46.760;15.942;2022-07-21T01:21:44;20.40;90.60
24412;DHT22;12544;46.760;15.942;2022-07-21T01:24:11;20.40;90.60
24412;DHT22;12544;46.760;15.942;2022-07-21T01:29:34;20.40;90.80
24412;DHT22;12544;46.760;15.942;2022-07-21T01:32:00;20.40;90.70
24412;DHT22;12544;46.760;15.942;2022-07-21T01:34:25;20.40;90.60
24412;DHT22;12544;46.760;15.942;2022-07-21T01:36:51;20.40;90.60
24412;DHT22;12544;46.760;15.942;2022-07-21T01:39:16;20.40;90.60
24412;DHT22;12544;46.760;15.942;2022-07-21T01:42:01;20.40;90.40
24412;DHT22;12544;46.760;15.942;2022-07-21T01:44:26;20.30;90.20
24412;DHT22;12544;46.760;15.942;2022-07-21T01:46:52;20.30;90.20
24412;DHT22;12544;46.760;15.942;2022-07-21T01:49:18;20.30;90.10
24412;DHT22;12544;46.760;15.942;2022-07-21T01:51:44;20.30;90.20
24412;DHT22;12544;46.760;15.942;2022-07-21T01:54:10;20.30;90.20
24412;DHT22;12544;46.760;15.942;2022-07-21T01:56:36;20.30;90.50
24412;DHT22;12544;46.760;15.942;2022-07-21T01:59:02;20.20;91.30
24412;DHT22;12544;46.760;15.942;2022-07-21T02:01:29;20.10;91.80
24412;DHT22;12544;46.760;15.942;2022-07-21T02:03:56;20.00;91.60
24412;DHT22;12544;46.760;15.942;2022-07-21T02:09:14;19.90;91.80
24412;DHT22;12544;46.760;15.942;2022-07-21T02:11:40;19.90;91.90
24412;DHT22;12544;46.760;15.942;2022-07-21T02:14:05;19.90;92.00
24412;DHT22;12544;46.760;15.942;2022-07-21T02:16:31;19.90;92.00
24412;DHT22;12544;46.760;15.942;2022-07-21T02:18:57;19.80;92.20
24412;DHT22;12544;46.760;15.942;2022-07-21T02:21:22;19.80;92.40
24412;DHT22;12544;46.760;15.942;2022-07-21T02:23:48;19.80;93.10
24412;DHT22;12544;46.760;15.942;2022-07-21T02:26:13;19.80;93.10
24412;DHT22;12544;46.760;15.942;2022-07-21T02:28:39;19.70;94.10
24412;DHT22;12544;46.760;15.942;2022-07-21T02:31:05;19.60;94.50
24412;DHT22;12544;46.760;15.942;2022-07-21T02:33:30;19.60;94.70
24412;DHT22;12544;46.760;15.942;2022-07-21T02:35:56;19.50;94.90
24412;DHT22;12544;46.760;15.942;2022-07-21T02:38:21;19.40;95.20
24412;DHT22;12544;46.760;15.942;2022-07-21T02:40:47;19.20;95.60
24412;DHT22;12544;46.760;15.942;2022-07-21T02:43:12;19.10;96.00
24412;DHT22;12544;46.760;15.942;2022-07-21T02:45:38;19.00;96.20
24412;DHT22;12544;46.760;15.942;2022-07-21T02:48:05;19.00;96.40
24412;DHT22;12544;46.760;15.942;2022-07-21T02:50:32;19.10;96.50
24412;DHT22;12544;46.760;15.942;2022-07-21T02:55:46;18.90;97.30
24412;DHT22;12544;46.760;15.942;2022-07-21T02:58:16;18.90;97.90
24412;DHT22;12544;46.760;15.942;2022-07-21T03:00:45;18.80;98.20
24412;DHT22;12544;46.760;15.942;2022-07-21T03:03:11;18.80;98.20
24412;DHT22;12544;46.760;15.942;2022-07-21T03:05:36;18.80;98.40
24412;DHT22;12544;46.760;15.942;2022-07-21T03:08:02;18.70;98.70
24412;DHT22;12544;46.760;15.942;2022-07-21T03:10:28;18.60;99.30
24412;DHT22;12544;46.760;15.942;2022-07-21T03:12:54;18.50;99.80
24412;DHT22;12544;46.760;15.942;2022-07-21T03:15:19;18.50;99.90
24412;DHT22;12544;46.760;15.942;2022-07-21T03:17:45;18.60;99.90
24412;DHT22;12544;46.760;15.942;2022-07-21T03:20:10;18.60;99.90
24412;DHT22;12544;46.760;15.942;2022-07-21T03:22:36;18.60;99.90
24412;DHT22;12544;46.760;15.942;2022-07-21T03:25:02;18.70;99.90
24412;DHT22;12544;46.760;15.942;2022-07-21T03:27:27;18.70;99.90
24412;DHT22;12544;46.760;15.942;2022-07-21T03:29:53;18.60;99.90
24412;DHT22;12544;46.760;15.942;2022-07-21T03:32:18;18.60;99.90
24412;DHT22;12544;46.760;15.942;2022-07-21T03:34:44;18.60;99.90
24412;DHT22;12544;46.760;15.942;2022-07-21T03:37:11;18.60;99.90
24412;DHT22;12544;46.760;15.942;2022-07-21T03:39:36;18.50;99.90
24412;DHT22;12544;46.760;15.942;2022-07-21T03:42:02;18.50;99.90
24412;DHT22;12544;46.760;15.942;2022-07-21T03:44:28;18.50;99.90
24412;DHT22;12544;46.760;15.942;2022-07-21T03:46:53;18.50;99.90
24412;DHT22;12544;46.760;15.942;2022-07-21T03:49:19;18.50;99.90
24412;DHT22;12544;46.760;15.942;2022-07-21T03:51:44;18.40;99.90
24412;DHT22;12544;46.760;15.942;2022-07-21T03:54:10;18.40;99.90
24412;DHT22;12544;46.760;15.942;2022-07-21T03:56:36;18.40;99.90
24412;DHT22;12544;46.760;15.942;2022-07-21T03:59:02;18.40;99.90
24412;DHT22;12544;46.760;15.942;2022-07-21T04:01:27;18.50;99.90
24412;DHT22;12544;46.760;15.942;2022-07-21T04:03:53;18.40;99.90
24412;DHT22;12544;46.760;15.942;2022-07-21T04:06:18;18.40;99.90
24412;DHT22;12544;46.760;15.942;2022-07-21T04:08:44;18.30;99.90
24412;DHT22;12544;46.760;15.942;2022-07-21T04:11:09;18.20;99.90
24412;DHT22;12544;46.760;15.942;2022-07-21T04:13:35;18.10;99.90
24412;DHT22;12544;46.760;15.942;2022-07-21T04:16:01;18.10;99.90
24412;DHT22;12544;46.760;15.942;2022-07-21T04:18:26;18.10;99.90
24412;DHT22;12544;46.760;15.942;2022-07-21T04:20:52;18.20;99.90
24412;DHT22;12544;46.760;15.942;2022-07-21T04:23:17;18.20;99.90
24412;DHT22;12544;46.760;15.942;2022-07-21T04:25:43;18.30;99.90
24412;DHT22;12544;46.760;15.942;2022-07-21T04:28:08;18.30;99.90
24412;DHT22;12544;46.760;15.942;2022-07-21T04:30:36;18.20;99.90
24412;DHT22;12544;46.760;15.942;2022-07-21T04:33:02;18.20;99.90
24412;DHT22;12544;46.760;15.942;2022-07-21T04:35:27;18.30;99.90
24412;DHT22;12544;46.760;15.942;2022-07-21T04:38:00;18.30;99.90
24412;DHT22;12544;46.760;15.942;2022-07-21T04:40:25;18.40;99.90
24412;DHT22;12544;46.760;15.942;2022-07-21T04:42:51;18.40;99.90
24412;DHT22;12544;46.760;15.942;2022-07-21T04:45:16;18.40;99.90
24412;DHT22;12544;46.760;15.942;2022-07-21T04:47:43;18.30;99.90
24412;DHT22;12544;46.760;15.942;2022-07-21T04:50:09;18.30;99.90
24412;DHT22;12544;46.760;15.942;2022-07-21T04:52:35;18.20;99.90
24412;DHT22;12544;46.760;15.942;2022-07-21T04:55:00;18.20;99.90
24412;DHT22;12544;46.760;15.942;2022-07-21T04:57:26;18.20;99.90
24412;DHT22;12544;46.760;15.942;2022-07-21T04:59:51;18.30;99.90
24412;DHT22;12544;46.760;15.942;2022-07-21T05:02:17;18.40;99.90
24412;DHT22;12544;46.760;15.942;2022-07-21T05:04:42;18.40;99.90
24412;DHT22;12544;46.760;15.942;2022-07-21T05:07:08;18.40;99.90
24412;DHT22;12544;46.760;15.942;2022-07-21T05:09:33;18.40;99.90
24412;DHT22;12544;46.760;15.942;2022-07-21T05:11:59;18.40;99.90
24412;DHT22;12544;46.760;15.942;2022-07-21T05:14:24;18.40;99.90
24412;DHT22;12544;46.760;15.942;2022-07-21T05:16:50;18.40;99.90
24412;DHT22;12544;46.760;15.942;2022-07-21T05:19:16;18.50;99.90
24412;DHT22;12544;46.760;15.942;2022-07-21T05:21:41;18.70;99.90
24412;DHT22;12544;46.760;15.942;2022-07-21T05:24:07;18.80;99.90
24412;DHT22;12544;46.760;15.942;2022-07-21T05:26:34;18.90;99.90
24412;DHT22;12544;46.760;15.942;2022-07-21T05:28:59;19.00;99.90
24412;DHT22;12544;46.760;15.942;2022-07-21T05:31:25;19.00;99.90
24412;DHT22;12544;46.760;15.942;2022-07-21T05:33:50;19.00;99.90
24412;DHT22;12544;46.760;15.942;2022-07-21T05:36:16;19.00;99.90
24412;DHT22;12544;46.760;15.942;2022-07-21T05:38:43;19.00;99.90
24412;DHT22;12544;46.760;15.942;2022-07-21T05:41:09;19.00;99.90
24412;DHT22;12544;46.760;15.942;2022-07-21T05:43:34;19.00;99.90
24412;DHT22;12544;46.760;15.942;2022-07-21T05:46:00;19.20;99.90
24412;DHT22;12544;46.760;15.942;2022-07-21T05:48:25;19.40;99.90
24412;DHT22;12544;46.760;15.942;2022-07-21T05:50:51;19.50;99.90
24412;DHT22;12544;46.760;15.942;2022-07-21T05:53:16;19.70;99.90
24412;DHT22;12544;46.760;15.942;2022-07-21T05:55:42;19.80;99.90
24412;DHT22;12544;46.760;15.942;2022-07-21T05:58:07;20.00;99.90
24412;DHT22;12544;46.760;15.942;2022-07-21T06:00:33;20.10;99.90
24412;DHT22;12544;46.760;15.942;2022-07-21T06:02:59;20.20;99.90
24412;DHT22;12544;46.760;15.942;2022-07-21T06:05:24;20.40;99.90
24412;DHT22;12544;46.760;15.942;2022-07-21T06:07:50;20.50;99.90
24412;DHT22;12544;46.760;15.942;2022-07-21T06:10:15;20.50;99.90
24412;DHT22;12544;46.760;15.942;2022-07-21T06:12:41;20.60;99.90
24412;DHT22;12544;46.760;15.942;2022-07-21T06:15:07;20.60;99.90
24412;DHT22;12544;46.760;15.942;2022-07-21T06:17:39;20.70;99.90
24412;DHT22;12544;46.760;15.942;2022-07-21T06:20:06;20.70;99.90
24412;DHT22;12544;46.760;15.942;2022-07-21T06:22:31;20.70;99.90
24412;DHT22;12544;46.760;15.942;2022-07-21T06:24:57;20.70;99.90
24412;DHT22;12544;46.760;15.942;2022-07-21T06:27:22;20.80;99.90
24412;DHT22;12544;46.760;15.942;2022-07-21T06:29:48;20.90;99.90
24412;DHT22;12544;46.760;15.942;2022-07-21T06:34:44;21.20;99.90
24412;DHT22;12544;46.760;15.942;2022-07-21T06:37:09;21.40;99.90
24412;DHT22;12544;46.760;15.942;2022-07-21T06:39:35;21.50;99.90
24412;DHT22;12544;46.760;15.942;2022-07-21T06:42:04;21.70;99.90
24412;DHT22;12544;46.760;15.942;2022-07-21T06:44:30;21.90;99.90
24412;DHT22;12544;46.760;15.942;2022-07-21T06:46:56;22.10;99.90
24412;DHT22;12544;46.760;15.942;2022-07-21T06:49:23;22.20;99.90
24412;DHT22;12544;46.760;15.942;2022-07-21T06:51:48;22.30;99.90
24412;DHT22;12544;46.760;15.942;2022-07-21T06:54:14;22.40;99.90
24412;DHT22;12544;46.760;15.942;2022-07-21T06:56:39;22.40;99.90
24412;DHT22;12544;46.760;15.942;2022-07-21T06:59:05;22.50;99.90
24412;DHT22;12544;46.760;15.942;2022-07-21T07:01:30;22.50;99.90
24412;DHT22;12544;46.760;15.942;2022-07-21T07:03:56;22.60;99.90
24412;DHT22;12544;46.760;15.942;2022-07-21T07:06:21;22.70;99.90
24412;DHT22;12544;46.760;15.942;2022-07-21T07:08:48;22.90;99.90
24412;DHT22;12544;46.760;15.942;2022-07-21T07:11:14;23.00;99.90
24412;DHT22;12544;46.760;15.942;2022-07-21T07:13:39;23.00;99.90
24412;DHT22;12544;46.760;15.942;2022-07-21T07:16:06;23.10;99.90
24412;DHT22;12544;46.760;15.942;2022-07-21T07:18:31;23.30;99.90
24412;DHT22;12544;46.760;15.942;2022-07-21T07:20:57;23.40;99.90
24412;DHT22;12544;46.760;15.942;2022-07-21T07:23:23;23.60;99.90
24412;DHT22;12544;46.760;15.942;2022-07-21T07:25:48;23.60;99.90
24412;DHT22;12544;46.760;15.942;2022-07-21T07:28:15;23.70;99.90
24412;DHT22;12544;46.760;15.942;2022-07-21T07:30:40;23.80;99.90
24412;DHT22;12544;46.760;15.942;2022-07-21T07:33:06;24.00;99.90
24412;DHT22;12544;46.760;15.942;2022-07-21T07:35:37;24.10;99.90
24412;DHT22;12544;46.760;15.942;2022-07-21T07:38:03;24.20;99.90
24412;DHT22;12544;46.760;15.942;2022-07-21T07:40:28;24.30;99.90
24412;DHT22;12544;46.760;15.942;2022-07-21T07:42:55;24.40;99.90
24412;DHT22;12544;46.760;15.942;2022-07-21T07:45:20;24.50;99.90
24412;DHT22;12544;46.760;15.942;2022-07-21T07:47:46;24.60;99.90
24412;DHT22;12544;46.760;15.942;2022-07-21T07:50:12;24.80;99.90
24412;DHT22;12544;46.760;15.942;2022-07-21T07:52:39;25.00;99.90
24412;DHT22;12544;46.760;15.942;2022-07-21T07:55:05;25.00;99.90
24412;DHT22;12544;46.760;15.942;2022-07-21T07:57:35;25.10;99.90
24412;DHT22;12544;46.760;15.942;2022-07-21T08:00:03;25.30;99.90
24412;DHT22;12544;46.760;15.942;2022-07-21T08:02:29;25.50;99.90
24412;DHT22;12544;46.760;15.942;2022-07-21T08:04:54;25.60;99.90
24412;DHT22;12544;46.760;15.942;2022-07-21T08:07:20;25.70;99.90
24412;DHT22;12544;46.760;15.942;2022-07-21T08:09:45;25.90;99.90
24412;DHT22;12544;46.760;15.942;2022-07-21T08:12:11;25.90;99.90
24412;DHT22;12544;46.760;15.942;2022-07-21T08:14:36;26.10;99.90
24412;DHT22;12544;46.760;15.942;2022-07-21T08:17:02;26.20;99.90
24412;DHT22;12544;46.760;15.942;2022-07-21T08:19:28;26.30;99.90
24412;DHT22;12544;46.760;15.942;2022-07-21T08:21:53;26.40;99.90
24412;DHT22;12544;46.760;15.942;2022-07-21T08:24:19;26.60;99.90
24412;DHT22;12544;46.760;15.942;2022-07-21T08:26:44;26.80;99.90
24412;DHT22;12544;46.760;15.942;2022-07-21T08:29:10;27.00;99.90
24412;DHT22;12544;46.760;15.942;2022-07-21T08:31:36;27.10;99.90
24412;DHT22;12544;46.760;15.942;2022-07-21T08:34:01;27.30;99.60
24412;DHT22;12544;46.760;15.942;2022-07-21T08:36:27;27.50;99.80
24412;DHT22;12544;46.760;15.942;2022-07-21T08:38:52;27.60;98.00
24412;DHT22;12544;46.760;15.942;2022-07-21T08:41:18;27.70;99.30
24412;DHT22;12544;46.760;15.942;2022-07-21T08:43:43;27.80;98.80
24412;DHT22;12544;46.760;15.942;2022-07-21T08:46:09;27.90;97.60
24412;DHT22;12544;46.760;15.942;2022-07-21T08:48:35;28.00;96.90
24412;DHT22;12544;46.760;15.942;2022-07-21T08:51:01;28.00;95.00
24412;DHT22;12544;46.760;15.942;2022-07-21T08:53:26;28.10;95.60
24412;DHT22;12544;46.760;15.942;2022-07-21T08:55:53;28.00;95.80
24412;DHT22;12544;46.760;15.942;2022-07-21T08:58:19;28.10;91.70
24412;DHT22;12544;46.760;15.942;2022-07-21T09:00:46;28.30;90.30
24412;DHT22;12544;46.760;15.942;2022-07-21T09:05:41;28.60;90.00
24412;DHT22;12544;46.760;15.942;2022-07-21T09:08:07;28.70;89.90
24412;DHT22;12544;46.760;15.942;2022-07-21T09:10:32;28.70;91.00
24412;DHT22;12544;46.760;15.942;2022-07-21T09:12:59;28.90;90.40
24412;DHT22;12544;46.760;15.942;2022-07-21T09:15:25;29.00;87.10
24412;DHT22;12544;46.760;15.942;2022-07-21T09:20:29;29.20;87.90
24412;DHT22;12544;46.760;15.942;2022-07-21T09:23:03;29.40;80.80
24412;DHT22;12544;46.760;15.942;2022-07-21T09:25:48;29.60;81.20
24412;DHT22;12544;46.760;15.942;2022-07-21T09:28:21;29.80;79.00
24412;DHT22;12544;46.760;15.942;2022-07-21T09:33:46;30.10;82.30
24412;DHT22;12544;46.760;15.942;2022-07-21T09:36:08;30.30;76.60
24412;DHT22;12544;46.760;15.942;2022-07-21T09:38:35;30.50;77.50
24412;DHT22;12544;46.760;15.942;2022-07-21T09:41:08;30.60;74.10
24412;DHT22;12544;46.760;15.942;2022-07-21T09:46:00;30.80;71.40
24412;DHT22;12544;46.760;15.942;2022-07-21T09:48:33;30.90;72.50
24412;DHT22;12544;46.760;15.942;2022-07-21T09:53:51;31.10;67.30
24412;DHT22;12544;46.760;15.942;2022-07-21T09:56:17;31.10;65.50
24412;DHT22;12544;46.760;15.942;2022-07-21T09:58:47;31.20;66.90
24412;DHT22;12544;46.760;15.942;2022-07-21T10:01:12;31.30;66.10
24412;DHT22;12544;46.760;15.942;2022-07-21T10:03:38;31.40;67.00
24412;DHT22;12544;46.760;15.942;2022-07-21T10:06:04;31.60;64.00
24412;DHT22;12544;46.760;15.942;2022-07-21T10:08:30;31.50;64.20
24412;DHT22;12544;46.760;15.942;2022-07-21T10:10:57;31.60;66.50
24412;DHT22;12544;46.760;15.942;2022-07-21T10:13:23;31.80;61.90
24412;DHT22;12544;46.760;15.942;2022-07-21T10:15:48;31.90;63.10
24412;DHT22;12544;46.760;15.942;2022-07-21T10:18:14;32.10;67.30
24412;DHT22;12544;46.760;15.942;2022-07-21T10:20:40;32.20;63.10
24412;DHT22;12544;46.760;15.942;2022-07-21T10:23:14;32.30;61.60
24412;DHT22;12544;46.760;15.942;2022-07-21T10:25:41;32.30;62.60
24412;DHT22;12544;46.760;15.942;2022-07-21T10:28:15;32.30;60.50
24412;DHT22;12544;46.760;15.942;2022-07-21T10:30:44;32.40;61.70
24412;DHT22;12544;46.760;15.942;2022-07-21T10:33:10;32.50;67.70
24412;DHT22;12544;46.760;15.942;2022-07-21T10:35:39;32.50;66.20
24412;DHT22;12544;46.760;15.942;2022-07-21T10:38:05;32.70;60.70
24412;DHT22;12544;46.760;15.942;2022-07-21T10:45:30;32.90;58.20
24412;DHT22;12544;46.760;15.942;2022-07-21T10:47:56;32.90;59.70
24412;DHT22;12544;46.760;15.942;2022-07-21T10:50:31;33.00;60.10
24412;DHT22;12544;46.760;15.942;2022-07-21T10:55:23;33.20;61.40
24412;DHT22;12544;46.760;15.942;2022-07-21T11:00:36;33.60;62.00
24412;DHT22;12544;46.760;15.942;2022-07-21T11:03:03;33.70;59.00
24412;DHT22;12544;46.760;15.942;2022-07-21T11:05:30;33.70;59.30
24412;DHT22;12544;46.760;15.942;2022-07-21T11:08:12;33.70;58.70
24412;DHT22;12544;46.760;15.942;2022-07-21T11:10:39;34.00;56.00
24412;DHT22;12544;46.760;15.942;2022-07-21T11:13:05;34.10;55.30
24412;DHT22;12544;46.760;15.942;2022-07-21T11:18:16;33.80;57.90
24412;DHT22;12544;46.760;15.942;2022-07-21T11:20:42;34.00;56.80
24412;DHT22;12544;46.760;15.942;2022-07-21T11:23:07;34.00;56.50
24412;DHT22;12544;46.760;15.942;2022-07-21T11:25:33;34.20;56.50
24412;DHT22;12544;46.760;15.942;2022-07-21T11:27:59;34.30;54.90
24412;DHT22;12544;46.760;15.942;2022-07-21T11:30:24;34.50;54.30
24412;DHT22;12544;46.760;15.942;2022-07-21T11:32:50;34.60;54.30
24412;DHT22;12544;46.760;15.942;2022-07-21T11:35:16;34.40;54.30
24412;DHT22;12544;46.760;15.942;2022-07-21T11:37:43;34.50;55.40
24412;DHT22;12544;46.760;15.942;2022-07-21T11:40:13;34.70;55.60
24412;DHT22;12544;46.760;15.942;2022-07-21T11:42:39;34.90;53.00
24412;DHT22;12544;46.760;15.942;2022-07-21T11:45:05;35.10;53.50
24412;DHT22;12544;46.760;15.942;2022-07-21T11:47:31;35.20;50.80
24412;DHT22;12544;46.760;15.942;2022-07-21T11:49:58;35.30;50.10
24412;DHT22;12544;46.760;15.942;2022-07-21T11:52:25;35.40;49.70
24412;DHT22;12544;46.760;15.942;2022-07-21T11:54:52;35.40;50.90
24412;DHT22;12544;46.760;15.942;2022-07-21T11:57:18;35.50;50.70
24412;DHT22;12544;46.760;15.942;2022-07-21T11:59:45;35.60;50.10
24412;DHT22;12544;46.760;15.942;2022-07-21T12:02:14;35.70;49.80
24412;DHT22;12544;46.760;15.942;2022-07-21T12:07:13;35.80;49.40
24412;DHT22;12544;46.760;15.942;2022-07-21T12:09:40;35.90;49.60
24412;DHT22;12544;46.760;15.942;2022-07-21T12:12:13;35.90;48.90
24412;DHT22;12544;46.760;15.942;2022-07-21T12:17:08;36.00;50.80
24412;DHT22;12544;46.760;15.942;2022-07-21T12:19:33;36.10;51.10
24412;DHT22;12544;46.760;15.942;2022-07-21T12:21:59;36.10;49.30
24412;DHT22;12544;46.760;15.942;2022-07-21T12:24:46;36.30;48.30
24412;DHT22;12544;46.760;15.942;2022-07-21T12:27:10;36.20;49.00
24412;DHT22;12544;46.760;15.942;2022-07-21T12:29:36;36.50;48.30
24412;DHT22;12544;46.760;15.942;2022-07-21T12:32:02;36.50;47.50
24412;DHT22;12544;46.760;15.942;2022-07-21T12:34:27;36.50;47.00
24412;DHT22;12544;46.760;15.942;2022-07-21T12:36:53;36.60;48.00
24412;DHT22;12544;46.760;15.942;2022-07-21T12:39:25;36.70;47.70
24412;DHT22;12544;46.760;15.942;2022-07-21T12:45:17;36.90;46.10
24412;DHT22;12544;46.760;15.942;2022-07-21T12:47:43;37.00;48.10
24412;DHT22;12544;46.760;15.942;2022-07-21T12:50:13;37.10;46.30
24412;DHT22;12544;46.760;15.942;2022-07-21T12:52:40;37.10;44.80
24412;DHT22;12544;46.760;15.942;2022-07-21T12:55:06;37.00;46.90
24412;DHT22;12544;46.760;15.942;2022-07-21T12:57:32;36.90;46.40
24412;DHT22;12544;46.760;15.942;2022-07-21T12:59:58;37.00;45.90
24412;DHT22;12544;46.760;15.942;2022-07-21T13:02:24;37.10;44.70
24412;DHT22;12544;46.760;15.942;2022-07-21T13:04:50;37.10;45.10
24412;DHT22;12544;46.760;15.942;2022-07-21T13:07:15;37.20;45.50
24412;DHT22;12544;46.760;15.942;2022-07-21T13:09:41;37.30;42.50
24412;DHT22;12544;46.760;15.942;2022-07-21T13:12:06;37.40;43.60
24412;DHT22;12544;46.760;15.942;2022-07-21T13:14:32;37.30;43.30
24412;DHT22;12544;46.760;15.942;2022-07-21T13:16:58;37.10;44.90
24412;DHT22;12544;46.760;15.942;2022-07-21T13:19:24;37.00;45.00
24412;DHT22;12544;46.760;15.942;2022-07-21T13:21:50;37.10;44.40
24412;DHT22;12544;46.760;15.942;2022-07-21T13:24:15;37.10;43.80
24412;DHT22;12544;46.760;15.942;2022-07-21T13:26:41;37.30;43.00
24412;DHT22;12544;46.760;15.942;2022-07-21T13:29:06;37.30;44.80
24412;DHT22;12544;46.760;15.942;2022-07-21T13:31:36;37.40;44.00
24412;DHT22;12544;46.760;15.942;2022-07-21T13:34:02;37.40;43.50
24412;DHT22;12544;46.760;15.942;2022-07-21T13:36:28;37.40;43.70
24412;DHT22;12544;46.760;15.942;2022-07-21T13:38:53;37.40;45.80
24412;DHT22;12544;46.760;15.942;2022-07-21T13:41:19;37.40;44.90
24412;DHT22;12544;46.760;15.942;2022-07-21T13:43:54;37.30;45.00
24412;DHT22;12544;46.760;15.942;2022-07-21T13:46:20;37.30;45.00
24412;DHT22;12544;46.760;15.942;2022-07-21T13:48:45;37.30;46.20
24412;DHT22;12544;46.760;15.942;2022-07-21T13:51:12;37.30;44.90
24412;DHT22;12544;46.760;15.942;2022-07-21T13:53:38;37.30;45.00
24412;DHT22;12544;46.760;15.942;2022-07-21T13:56:04;37.20;47.10
24412;DHT22;12544;46.760;15.942;2022-07-21T13:58:36;37.30;45.10
24412;DHT22;12544;46.760;15.942;2022-07-21T14:01:01;37.30;46.00
24412;DHT22;12544;46.760;15.942;2022-07-21T14:03:27;37.30;46.40
24412;DHT22;12544;46.760;15.942;2022-07-21T14:05:52;37.40;45.80
24412;DHT22;12544;46.760;15.942;2022-07-21T14:08:18;37.60;45.70
24412;DHT22;12544;46.760;15.942;2022-07-21T14:10:43;37.70;46.10
24412;DHT22;12544;46.760;15.942;2022-07-21T14:13:09;37.70;45.40
24412;DHT22;12544;46.760;15.942;2022-07-21T14:15:35;37.90;44.80
24412;DHT22;12544;46.760;15.942;2022-07-21T14:18:00;37.90;44.80
24412;DHT22;12544;46.760;15.942;2022-07-21T14:20:26;37.80;45.60
24412;DHT22;12544;46.760;15.942;2022-07-21T14:22:51;37.70;44.90
24412;DHT22;12544;46.760;15.942;2022-07-21T14:25:17;37.80;43.60
24412;DHT22;12544;46.760;15.942;2022-07-21T14:27:46;37.90;44.20
24412;DHT22;12544;46.760;15.942;2022-07-21T14:30:12;38.00;44.70
24412;DHT22;12544;46.760;15.942;2022-07-21T14:32:37;38.20;43.40
24412;DHT22;12544;46.760;15.942;2022-07-21T14:35:03;38.30;43.80
24412;DHT22;12544;46.760;15.942;2022-07-21T14:37:29;38.40;42.40
24412;DHT22;12544;46.760;15.942;2022-07-21T14:39:54;38.40;42.90
24412;DHT22;12544;46.760;15.942;2022-07-21T14:42:20;38.40;44.50
24412;DHT22;12544;46.760;15.942;2022-07-21T14:44:48;38.20;42.80
24412;DHT22;12544;46.760;15.942;2022-07-21T14:47:13;38.30;43.70
24412;DHT22;12544;46.760;15.942;2022-07-21T14:49:39;38.20;44.20
24412;DHT22;12544;46.760;15.942;2022-07-21T14:52:04;38.30;44.10
24412;DHT22;12544;46.760;15.942;2022-07-21T14:54:30;38.40;42.30
24412;DHT22;12544;46.760;15.942;2022-07-21T14:56:56;38.40;42.20
24412;DHT22;12544;46.760;15.942;2022-07-21T14:59:21;38.30;41.70
24412;DHT22;12544;46.760;15.942;2022-07-21T15:01:47;38.30;41.40
24412;DHT22;12544;46.760;15.942;2022-07-21T15:04:12;38.30;41.50
24412;DHT22;12544;46.760;15.942;2022-07-21T15:06:38;38.30;41.10
24412;DHT22;12544;46.760;15.942;2022-07-21T15:09:04;38.00;41.20
24412;DHT22;12544;46.760;15.942;2022-07-21T15:11:29;37.80;40.90
24412;DHT22;12544;46.760;15.942;2022-07-21T15:13:55;37.80;40.70
24412;DHT22;12544;46.760;15.942;2022-07-21T15:16:20;37.60;42.00
24412;DHT22;12544;46.760;15.942;2022-07-21T15:18:46;37.50;41.90
24412;DHT22;12544;46.760;15.942;2022-07-21T15:21:11;37.50;41.00
24412;DHT22;12544;46.760;15.942;2022-07-21T15:23:37;37.60;40.40
24412;DHT22;12544;46.760;15.942;2022-07-21T15:26:02;37.70;41.00
24412;DHT22;12544;46.760;15.942;2022-07-21T15:28:28;37.70;40.60
24412;DHT22;12544;46.760;15.942;2022-07-21T15:30:53;37.80;41.00
24412;DHT22;12544;46.760;15.942;2022-07-21T15:33:19;37.90;43.20
24412;DHT22;12544;46.760;15.942;2022-07-21T15:35:44;38.00;42.10
24412;DHT22;12544;46.760;15.942;2022-07-21T15:38:11;38.10;42.10
24412;DHT22;12544;46.760;15.942;2022-07-21T15:40:37;38.10;40.00
24412;DHT22;12544;46.760;15.942;2022-07-21T15:43:02;38.20;40.50
24412;DHT22;12544;46.760;15.942;2022-07-21T15:45:28;38.20;40.30
24412;DHT22;12544;46.760;15.942;2022-07-21T15:47:53;38.20;42.10
24412;DHT22;12544;46.760;15.942;2022-07-21T15:50:20;38.10;40.50
24412;DHT22;12544;46.760;15.942;2022-07-21T15:52:45;38.00;40.40
24412;DHT22;12544;46.760;15.942;2022-07-21T15:55:11;37.80;40.60
24412;DHT22;12544;46.760;15.942;2022-07-21T15:57:37;37.90;41.60